首页
METAR-TAF:

METAR-TAF

机场 :

Knock, 爱尔兰

纬度: 53-54-37N, 经度: 008-49-05W, 海拔: 203米

当前天气观测

该预报发布于18分钟前的08:30 UTC
风速3节,风向西转西南
温度 2°C
湿度 80%
气压 1026 hPa
能见度10公里或以上
1500米以下无云,无积雨云

METAR: EIKN 180830Z 24003KT CAVOK 02/M01 Q1026 NOSIG

时间: 08:48 (08:48 UTC)

预报

该预报发布于3小时和48分钟前的05:00 UTC
预报有效从18日的 06点(UTC)到 19日的 06点(UTC)
风速5节,风向西南
能见度10公里或以上
少量云层高于4000英尺
成为
从 18日的 21点(UTC)到 18日的 23点(UTC)
风速10节,风向

TAF: EIKN 180500Z 1806/1906 23005KT 9999 FEW040 BECMG 1821/1823 17010KT

超过4000个机场的气象观测和天气预报(METAR&TAF报告)。

可查询的气象台以黄色和红色小点在地图上表示。

将鼠标移到小点上方,可查看气象台名称。

然后点击查看天气观测和预报。

如需切换地图:点击带黑十字的绿色按钮放大地图;点击带横线的绿色按钮缩小地图;或者点击绿色箭头查看邻近地区的地图。


METAR-TAF: